createdAt,value
2023-02-04T00:00:37.512Z,103773.94
2023-02-04T00:03:09.262Z,103795.25
2023-02-04T00:05:37.330Z,103782.59
2023-02-04T00:08:05.798Z,103786.59
2023-02-04T00:10:34.125Z,103796.75
2023-02-04T00:13:02.205Z,103801.94
2023-02-04T00:15:30.258Z,103806.38
2023-02-04T00:17:59.572Z,103810.84
2023-02-04T00:20:27.921Z,103813.75
2023-02-04T00:22:57.174Z,103814.63
2023-02-04T00:25:25.254Z,103807.66
2023-02-04T00:27:53.230Z,103793.25
2023-02-04T00:30:21.420Z,103809.41
2023-02-04T00:32:49.714Z,103802.25
2023-02-04T00:35:19.349Z,103802.16
2023-02-04T00:37:47.420Z,103783.28
2023-02-04T00:40:15.357Z,103800.19
2023-02-04T00:42:43.471Z,103805.28
2023-02-04T00:45:11.629Z,103805.38
2023-02-04T00:47:41.759Z,103802.88
2023-02-04T00:50:10.038Z,103800.88
2023-02-04T00:52:39.627Z,103800.06
2023-02-04T00:55:10.413Z,103786.41
2023-02-04T00:57:40.521Z,103810.53
2023-02-04T01:00:09.584Z,103817.56
2023-02-04T01:02:37.608Z,103810.38
2023-02-04T01:05:05.787Z,103807.94
2023-02-04T01:07:49.017Z,103805.28
2023-02-04T01:10:19.790Z,103812.38
2023-02-04T01:12:48.174Z,103805.19
2023-02-04T01:15:18.516Z,103813.25
2023-02-04T01:17:47.380Z,103808.97
2023-02-04T01:20:15.318Z,103812.78
2023-02-04T01:22:43.406Z,103819.16
2023-02-04T01:25:11.396Z,103811.53
2023-02-04T01:27:45.234Z,103792.06
2023-02-04T01:30:13.971Z,103818.97
2023-02-04T01:32:42.075Z,103819.13
2023-02-04T01:35:10.290Z,103817.56
2023-02-04T01:37:38.342Z,103810.66
2023-02-04T01:40:07.028Z,103817.56
2023-02-04T01:42:39.581Z,103804.75
2023-02-04T01:45:15.911Z,103819.31
2023-02-04T01:47:43.977Z,103819.44
2023-02-04T01:50:14.776Z,103817.72
2023-02-04T01:52:43.935Z,103819.44
2023-02-04T01:55:14.157Z,103821.16
2023-02-04T01:57:42.543Z,103812.31
2023-02-04T02:00:15.787Z,103816.78
2023-02-04T02:02:47.593Z,103815.66
2023-02-04T02:05:17.870Z,103807.09
2023-02-04T02:07:45.953Z,103815.53
2023-02-04T02:10:14.013Z,103826.97
2023-02-04T02:12:42.350Z,103807.88
2023-02-04T02:15:11.859Z,103819.97
2023-02-04T02:17:42.599Z,103794.03
2023-02-04T02:20:13.819Z,103786.53
2023-02-04T02:22:47.125Z,103822.56
2023-02-04T02:25:18.330Z,103824.44
2023-02-04T02:27:46.706Z,103818.97
2023-02-04T02:30:17.608Z,103793.16
2023-02-04T02:32:45.875Z,103820.53
2023-02-04T02:35:17.309Z,103816.38
2023-02-04T02:37:47.416Z,103816.53
2023-02-04T02:40:15.510Z,103829.63
2023-02-04T02:42:47.490Z,103823.66
2023-02-04T02:45:19.131Z,103828.03
2023-02-04T02:47:47.173Z,103816.00
2023-02-04T02:50:17.374Z,103833.59
2023-02-04T02:52:46.500Z,103823.03
2023-02-04T02:55:16.313Z,103807.53
2023-02-04T02:57:47.486Z,103821.31
2023-02-04T03:01:00.008Z,103824.63
2023-02-04T03:03:29.194Z,103832.66
2023-02-04T03:06:56.105Z,103824.31
2023-02-04T03:09:24.177Z,103826.16
2023-02-04T03:11:52.587Z,103815.84
2023-02-04T03:14:22.420Z,103821.09
2023-02-04T03:16:50.402Z,103824.91
2023-02-04T03:19:18.350Z,103830.22
2023-02-04T03:26:38.987Z,103837.03
2023-02-04T03:29:08.317Z,103819.66
2023-02-04T03:31:38.387Z,103846.34
2023-02-04T03:34:51.846Z,103841.81
2023-02-04T03:37:26.282Z,103837.75
2023-02-04T03:39:54.283Z,103847.16
2023-02-04T03:42:23.365Z,103846.97
2023-02-04T03:44:51.452Z,103837.28
2023-02-04T03:47:21.426Z,103840.72
2023-02-04T03:49:53.484Z,103832.75
2023-02-04T03:52:21.544Z,103816.63
2023-02-04T03:55:09.138Z,103831.63
2023-02-04T03:57:38.112Z,103803.81
2023-02-04T04:00:06.606Z,103829.63
2023-02-04T04:02:42.998Z,103827.75
2023-02-04T04:05:13.949Z,103833.81
2023-02-04T04:07:41.941Z,103837.41
2023-02-04T04:10:10.344Z,103837.59
2023-02-04T04:12:41.521Z,103829.63
2023-02-04T04:15:10.415Z,103830.56
2023-02-04T04:17:38.366Z,103831.50
2023-02-04T04:20:08.386Z,103828.91
2023-02-04T04:22:36.476Z,103830.63
2023-02-04T04:25:07.604Z,103831.81
2023-02-04T04:27:35.582Z,103832.50
2023-02-04T04:30:05.174Z,103833.22
2023-02-04T04:32:33.182Z,103834.94
2023-02-04T04:35:01.118Z,103841.66
2023-02-04T04:37:30.799Z,103832.75
2023-02-04T04:40:00.427Z,103836.16
2023-02-04T04:42:30.830Z,103830.69
2023-02-04T04:44:58.848Z,103835.97
2023-02-04T04:47:26.787Z,103833.25
2023-02-04T04:49:55.093Z,103833.25
2023-02-04T04:52:23.039Z,103831.28
2023-02-04T04:54:52.401Z,103831.41
2023-02-04T04:57:20.428Z,103822.69
2023-02-04T04:59:48.498Z,103822.00
2023-02-04T05:02:16.444Z,103826.78
2023-02-04T05:04:44.511Z,103829.28
2023-02-04T05:07:12.442Z,103823.97
2023-02-04T05:09:42.936Z,103830.84
2023-02-04T05:12:20.761Z,103821.06
2023-02-04T05:14:48.896Z,103823.53
2023-02-04T05:17:16.856Z,103824.47
2023-02-04T05:19:45.292Z,103820.06
2023-02-04T05:22:13.295Z,103820.13
2023-02-04T05:24:41.233Z,103824.31
2023-02-04T05:27:09.164Z,103826.19
2023-02-04T05:29:38.933Z,103834.19
2023-02-04T05:32:07.147Z,103819.28
2023-02-04T05:34:35.099Z,103830.78
2023-02-04T05:37:03.266Z,103827.25
2023-02-04T05:39:31.238Z,103829.16
2023-02-04T05:41:59.216Z,103833.38
2023-02-04T05:44:27.611Z,103830.59
2023-02-04T05:46:57.095Z,103829.03
2023-02-04T05:49:25.465Z,103824.66
2023-02-04T05:51:53.415Z,103817.94
2023-02-04T05:54:21.391Z,103831.03
2023-02-04T05:56:51.718Z,103803.81
2023-02-04T05:59:21.039Z,103828.50
2023-02-04T06:01:48.979Z,103830.31
2023-02-04T06:04:18.680Z,103814.66
2023-02-04T06:06:49.572Z,103831.88
2023-02-04T06:09:17.625Z,103825.69
2023-02-04T06:11:45.566Z,103835.22
2023-02-04T06:14:13.535Z,103829.16
2023-02-04T06:16:42.469Z,103831.97
2023-02-04T06:19:10.483Z,103808.81
2023-02-04T06:21:39.796Z,103831.03
2023-02-04T06:24:07.906Z,103824.13
2023-02-04T06:26:38.540Z,103826.03
2023-02-04T06:29:06.773Z,103828.03
2023-02-04T06:31:34.776Z,103834.94
2023-02-04T06:34:02.836Z,103836.66
2023-02-04T06:36:30.789Z,103842.91
2023-02-04T06:39:00.307Z,103819.44
2023-02-04T06:41:28.315Z,103843.84
2023-02-04T06:44:00.107Z,103811.16
2023-02-04T06:46:28.176Z,103835.09
2023-02-04T06:48:56.416Z,103829.75
2023-02-04T06:51:26.495Z,103834.94
2023-02-04T06:53:54.443Z,103838.22
2023-02-04T06:56:23.913Z,103841.66
2023-02-04T06:58:51.918Z,103829.63
2023-02-04T07:01:19.910Z,103847.06
2023-02-04T07:03:48.012Z,103839.22
2023-02-04T07:06:15.987Z,103835.09
2023-02-04T07:08:43.977Z,103841.25
2023-02-04T07:11:12.017Z,103840.47
2023-02-04T07:13:41.525Z,103808.66
2023-02-04T07:16:09.743Z,103854.81
2023-02-04T07:18:37.969Z,103853.22
2023-02-04T07:21:06.406Z,103862.06
2023-02-04T07:23:34.345Z,103825.78
2023-02-04T07:26:02.424Z,103855.13
2023-02-04T07:28:33.030Z,103861.19
2023-02-04T07:31:03.840Z,103853.47
2023-02-04T07:33:31.932Z,103860.44
2023-02-04T07:35:59.997Z,103859.59
2023-02-04T07:38:27.949Z,103860.44
2023-02-04T07:40:55.882Z,103851.50
2023-02-04T07:43:24.336Z,103857.69
2023-02-04T07:45:54.464Z,103858.84
2023-02-04T07:48:24.026Z,103869.41
2023-02-04T07:50:52.020Z,103871.28
2023-02-04T07:53:21.183Z,103874.88
2023-02-04T07:55:49.319Z,103880.13
2023-02-04T07:58:17.259Z,103883.81
2023-02-04T08:00:45.298Z,103875.84
2023-02-04T08:03:13.341Z,103879.44
2023-02-04T08:05:45.298Z,103876.69
2023-02-04T08:08:15.303Z,103857.63
2023-02-04T08:10:43.856Z,103885.31
2023-02-04T08:13:11.856Z,103883.72
2023-02-04T08:15:39.814Z,103886.63
2023-02-04T08:18:07.875Z,103891.94
2023-02-04T08:20:38.685Z,103885.13
2023-02-04T08:23:10.621Z,103873.38
2023-02-04T08:25:38.691Z,103889.53
2023-02-04T08:28:06.663Z,103894.84
2023-02-04T08:30:34.951Z,103887.94
2023-02-04T08:33:03.178Z,103903.56
2023-02-04T08:35:31.407Z,103877.59
2023-02-04T08:37:59.373Z,103901.72
2023-02-04T08:40:29.115Z,103914.06
2023-02-04T08:42:57.134Z,103924.53
2023-02-04T08:45:25.024Z,103912.03
2023-02-04T08:47:53.038Z,103921.69
2023-02-04T08:50:20.956Z,103911.97
2023-02-04T08:52:51.180Z,103917.22
2023-02-04T08:55:19.202Z,103912.66
2023-02-04T08:57:48.549Z,103913.63
2023-02-04T09:00:17.353Z,103911.91
2023-02-04T09:02:45.586Z,103915.31
2023-02-04T09:05:13.735Z,103918.78
2023-02-04T09:07:41.739Z,103900.47
2023-02-04T09:10:10.066Z,103908.00
2023-02-04T09:12:38.088Z,103914.88
2023-02-04T09:15:10.554Z,103916.75
2023-02-04T09:17:40.342Z,103914.38
2023-02-04T09:20:08.870Z,103909.72
2023-02-04T09:22:37.881Z,103915.03
2023-02-04T09:25:06.460Z,103905.97
2023-02-04T09:27:34.444Z,103897.75
2023-02-04T09:30:02.588Z,103904.66
2023-02-04T09:32:34.205Z,103912.38
2023-02-04T09:35:02.332Z,103890.72
2023-02-04T09:37:30.623Z,103915.03
2023-02-04T09:40:00.991Z,103924.63
2023-02-04T09:42:29.024Z,103923.88
2023-02-04T09:45:00.767Z,103897.03
2023-02-04T09:47:31.680Z,103915.22
2023-02-04T09:49:59.691Z,103922.06
2023-02-04T09:52:27.598Z,103917.59
2023-02-04T09:54:55.589Z,103905.66
2023-02-04T09:57:23.645Z,103922.09
2023-02-04T09:59:51.909Z,103911.84
2023-02-04T10:02:22.957Z,103928.28
2023-02-04T10:04:53.960Z,103913.00
2023-02-04T10:07:26.126Z,103926.47
2023-02-04T10:09:54.413Z,103935.13
2023-02-04T10:12:22.930Z,103924.72
2023-02-04T10:14:51.021Z,103941.69
2023-02-04T10:17:23.490Z,103937.06
2023-02-04T10:19:53.169Z,103943.81
2023-02-04T10:22:22.604Z,103944.34
2023-02-04T10:24:50.656Z,103922.13
2023-02-04T10:27:18.702Z,103954.69
2023-02-04T10:29:59.197Z,103959.91
2023-02-04T10:32:28.938Z,103956.41
2023-02-04T10:35:02.209Z,103962.13
2023-02-04T10:37:30.789Z,103969.31
2023-02-04T10:39:59.561Z,103965.63
2023-02-04T10:42:28.738Z,103983.28
2023-02-04T10:44:56.879Z,103968.44
2023-02-04T10:47:27.210Z,103985.94
2023-02-04T10:50:00.352Z,103956.50
2023-02-04T10:52:44.381Z,103985.28
2023-02-04T10:55:15.182Z,103976.84
2023-02-04T10:57:44.209Z,103965.34
2023-02-04T11:00:17.699Z,103987.34
2023-02-04T11:02:46.400Z,103969.03
2023-02-04T11:05:17.057Z,103989.69
2023-02-04T11:07:46.465Z,103960.94
2023-02-04T11:10:15.619Z,103969.69
2023-02-04T11:12:44.976Z,103988.47
2023-02-04T11:15:50.315Z,103991.94
2023-02-04T11:18:30.097Z,103989.75
2023-02-04T11:20:59.202Z,103978.56
2023-02-04T11:23:39.275Z,103996.72
2023-02-04T11:26:13.629Z,103987.34
2023-02-04T11:28:52.538Z,103987.63
2023-02-04T11:31:30.230Z,103970.97
2023-02-04T11:34:10.120Z,103952.47
2023-02-04T11:36:54.450Z,103968.91
2023-02-04T11:39:28.263Z,103960.44
2023-02-04T11:41:59.768Z,103972.50
2023-02-04T11:44:33.249Z,103956.84
2023-02-04T11:47:01.892Z,103952.38
2023-02-04T11:49:30.059Z,103956.38
2023-02-04T11:52:08.800Z,103960.19
2023-02-04T11:54:40.831Z,103953.97
2023-02-04T11:57:12.199Z,103966.28
2023-02-04T11:59:42.582Z,103964.81
2023-02-04T12:02:18.055Z,103950.41
2023-02-04T12:04:57.279Z,103942.41
2023-02-04T12:07:27.262Z,103962.38
2023-02-04T12:09:57.241Z,103975.78
2023-02-04T12:12:26.598Z,103967.78
2023-02-04T12:14:58.604Z,103975.78
2023-02-04T12:17:27.295Z,103973.22
2023-02-04T12:19:57.275Z,103975.88
2023-02-04T12:22:26.229Z,103955.44
2023-02-04T12:24:54.456Z,103973.38
2023-02-04T12:27:29.159Z,103970.69
2023-02-04T12:29:57.585Z,103990.91
2023-02-04T12:32:25.676Z,103983.88
2023-02-04T12:34:53.712Z,103985.69
2023-02-04T12:37:22.915Z,103975.16
2023-02-04T12:39:51.216Z,103983.63
2023-02-04T12:42:29.895Z,103982.84
2023-02-04T12:45:14.874Z,103987.81
2023-02-04T12:47:42.920Z,103982.84
2023-02-04T12:50:11.488Z,103971.16
2023-02-04T12:52:41.391Z,103971.31
2023-02-04T12:55:12.427Z,103973.09
2023-02-04T12:57:40.495Z,103970.44
2023-02-04T13:00:09.560Z,103954.78
2023-02-04T13:02:38.954Z,103970.31
2023-02-04T13:05:08.111Z,103959.97
2023-02-04T13:07:36.641Z,103977.34
2023-02-04T13:10:18.101Z,103958.56
2023-02-04T13:12:46.288Z,103964.81
2023-02-04T13:15:15.459Z,103970.22
2023-02-04T13:17:44.889Z,103972.03
2023-02-04T13:20:14.200Z,103966.69
2023-02-04T13:22:42.279Z,103977.16
2023-02-04T13:25:11.616Z,103973.56
2023-02-04T13:27:39.851Z,103963.69
2023-02-04T13:30:09.042Z,103953.19
2023-02-04T13:32:40.986Z,103953.03
2023-02-04T13:35:10.625Z,103950.53
2023-02-04T13:37:38.670Z,103955.56
2023-02-04T13:40:07.775Z,103933.69
2023-02-04T13:42:37.741Z,103933.53
2023-02-04T13:45:07.744Z,103951.91
2023-02-04T13:47:36.046Z,103940.66
2023-02-04T13:50:04.086Z,103943.31
2023-02-04T13:52:36.264Z,103936.47
2023-02-04T13:55:04.514Z,103939.56
2023-02-04T13:57:37.691Z,103949.44
2023-02-04T14:00:07.100Z,103945.06
2023-02-04T14:02:40.631Z,103950.53
2023-02-04T14:05:10.629Z,103937.47
2023-02-04T14:07:54.853Z,103948.91
2023-02-04T14:10:54.288Z,103934.72
2023-02-04T14:13:35.601Z,103910.78
2023-02-04T14:16:13.401Z,103922.50
2023-02-04T14:19:14.813Z,103899.88
2023-02-04T14:24:56.730Z,103935.06
2023-02-04T14:30:50.831Z,103944.13
2023-02-04T14:33:20.632Z,103935.69
2023-02-04T14:35:49.041Z,103929.16
2023-02-04T14:38:24.891Z,103923.19
2023-02-04T14:40:55.830Z,103952.47
2023-02-04T14:43:34.628Z,103953.31
2023-02-04T14:46:12.705Z,103919.13
2023-02-04T14:48:45.033Z,103949.97
2023-02-04T14:51:22.459Z,103946.53
2023-02-04T14:54:13.342Z,103958.91
2023-02-04T14:59:39.789Z,103941.69
2023-02-04T15:02:27.430Z,103930.63
2023-02-04T15:04:56.058Z,103949.66
2023-02-04T15:07:25.389Z,103934.09
2023-02-04T15:09:53.469Z,103972.84
2023-02-04T15:12:25.491Z,103963.91
2023-02-04T15:14:55.964Z,103970.03
2023-02-04T15:17:24.108Z,103962.19
2023-02-04T15:19:54.686Z,103964.06
2023-02-04T15:22:26.021Z,103964.06
2023-02-04T15:25:00.237Z,103967.66
2023-02-04T15:27:29.883Z,103972.13
2023-02-04T15:30:01.141Z,103963.38
2023-02-04T15:32:30.008Z,103973.09
2023-02-04T15:34:58.344Z,103985.53
2023-02-04T15:37:26.953Z,103983.09
2023-02-04T15:39:57.029Z,103982.94
2023-02-04T15:42:25.245Z,103988.41
2023-02-04T15:45:40.864Z,103989.53
2023-02-04T15:48:33.498Z,104005.13
2023-02-04T15:51:53.817Z,104003.38
2023-02-04T15:54:49.301Z,103993.19
2023-02-04T15:57:28.079Z,104004.78
2023-02-04T16:00:15.764Z,103983.44
2023-02-04T16:02:55.994Z,103989.84
2023-02-04T16:08:42.668Z,104008.09
2023-02-04T16:11:20.702Z,104036.66
2023-02-04T16:17:08.893Z,103994.75
2023-02-04T16:19:37.009Z,104034.25
2023-02-04T16:22:42.733Z,104041.44
2023-02-04T16:25:27.322Z,104022.31
2023-02-04T16:28:25.555Z,104018.44
2023-02-04T16:31:08.601Z,104043.56
2023-02-04T16:33:43.104Z,104043.56
2023-02-04T16:39:21.704Z,104037.91
2023-02-04T16:42:09.508Z,104064.91
2023-02-04T16:44:38.719Z,104042.97
2023-02-04T16:51:16.004Z,104047.97
2023-02-04T16:54:01.698Z,104073.06
2023-02-04T16:57:13.792Z,104048.94
2023-02-04T16:59:59.394Z,104048.72
2023-02-04T17:02:27.807Z,104073.94
2023-02-04T17:05:09.419Z,104069.75
2023-02-04T17:07:55.558Z,104060.22
2023-02-04T17:10:41.118Z,104084.09
2023-02-04T17:13:12.669Z,104075.09
2023-02-04T17:15:43.909Z,104074.47
2023-02-04T17:18:23.283Z,104077.59
2023-02-04T17:21:13.977Z,104029.03
2023-02-04T17:24:28.510Z,104060.84
2023-02-04T17:27:03.540Z,104058.91
2023-02-04T17:32:45.575Z,104084.66
2023-02-04T17:35:14.006Z,104078.53
2023-02-04T17:37:42.202Z,104071.94
2023-02-04T17:40:13.857Z,104069.88
2023-02-04T17:42:42.357Z,104099.03
2023-02-04T17:45:20.110Z,104090.28
2023-02-04T17:47:48.541Z,104055.78
2023-02-04T17:50:16.658Z,104081.50
2023-02-04T17:52:59.479Z,104091.97
2023-02-04T17:55:29.994Z,104097.13
2023-02-04T17:58:06.119Z,104104.38
2023-02-04T18:03:56.727Z,104078.97
2023-02-04T18:06:28.502Z,104119.63
2023-02-04T18:09:46.836Z,104091.97
2023-02-04T18:12:39.712Z,104118.03
2023-02-04T18:15:57.640Z,104089.44
2023-02-04T18:18:34.464Z,104092.75
2023-02-04T18:21:13.290Z,104135.88
2023-02-04T18:23:55.495Z,104128.88
2023-02-04T18:26:28.380Z,104090.31
2023-02-04T18:29:00.232Z,104121.44
2023-02-04T18:31:34.480Z,104141.31
2023-02-04T18:34:03.621Z,104132.41
2023-02-04T18:36:34.885Z,104134.31
2023-02-04T18:39:03.790Z,104128.00
2023-02-04T18:41:41.896Z,104120.63
2023-02-04T18:44:29.046Z,104111.09
2023-02-04T18:47:00.981Z,104143.22
2023-02-04T18:49:30.679Z,104132.16
2023-02-04T18:52:08.484Z,104138.03
2023-02-04T18:54:40.144Z,104141.78
2023-02-04T18:57:29.799Z,104145.38
2023-02-04T19:00:30.800Z,104137.22
2023-02-04T19:03:00.450Z,104141.78
2023-02-04T19:05:44.073Z,104136.47
2023-02-04T19:08:27.166Z,104117.34
2023-02-04T19:11:07.074Z,104123.53
2023-02-04T19:13:44.891Z,104155.81
2023-02-04T19:16:22.862Z,104152.94
2023-02-04T19:18:54.565Z,104162.34
2023-02-04T19:21:35.743Z,104127.06
2023-02-04T19:24:18.400Z,104145.38
2023-02-04T19:26:50.701Z,104161.50
2023-02-04T19:29:42.870Z,104155.28
2023-02-04T19:32:40.564Z,104178.16
2023-02-04T19:35:19.103Z,104161.69
2023-02-04T19:37:49.284Z,104154.00
2023-02-04T19:40:30.065Z,104166.94
2023-02-04T19:43:03.460Z,104156.91
2023-02-04T19:45:31.540Z,104172.56
2023-02-04T19:48:37.628Z,104170.13
2023-02-04T19:51:17.210Z,104147.69
2023-02-04T19:53:51.515Z,104133.75
2023-02-04T19:56:50.034Z,104170.13
2023-02-04T19:59:28.251Z,104171.06
2023-02-04T20:02:15.964Z,104172.00
2023-02-04T20:04:46.984Z,104174.72
2023-02-04T20:07:33.048Z,104160.34
2023-02-04T20:10:04.718Z,104181.22
2023-02-04T20:13:34.805Z,104174.72
2023-02-04T20:16:22.845Z,104182.06
2023-02-04T20:18:50.946Z,104166.81
2023-02-04T20:21:30.715Z,104171.28
2023-02-04T20:24:25.925Z,104175.47
2023-02-04T20:26:56.913Z,104166.09
2023-02-04T20:29:25.280Z,104167.91
2023-02-04T20:31:56.560Z,104152.44
2023-02-04T20:34:24.850Z,104173.44
2023-02-04T20:36:58.444Z,104154.53
2023-02-04T20:39:35.937Z,104145.13
2023-02-04T20:42:40.167Z,104181.22
2023-02-04T20:45:33.667Z,104146.66
2023-02-04T20:49:05.168Z,104168.84
2023-02-04T20:51:36.123Z,104161.22
2023-02-04T20:54:11.846Z,104179.78
2023-02-04T20:56:41.042Z,104176.94
2023-02-04T20:59:19.088Z,104179.47
2023-02-04T21:01:48.628Z,104175.72
2023-02-04T21:04:18.075Z,104176.53
2023-02-04T21:07:18.566Z,104173.66
2023-02-04T21:18:35.607Z,104177.75
2023-02-04T21:21:03.874Z,104170.88
2023-02-04T21:23:31.848Z,104168.97
2023-02-04T21:26:01.239Z,104163.81
2023-02-04T21:28:29.694Z,104168.97
2023-02-04T21:30:57.789Z,104184.31
2023-02-04T21:33:26.048Z,104181.56
2023-02-04T21:35:54.000Z,104182.34
2023-02-04T21:38:21.966Z,104178.75
2023-02-04T21:40:49.881Z,104183.91
2023-02-04T21:43:19.164Z,104183.84
2023-02-04T21:45:49.564Z,104173.28
2023-02-04T21:48:17.772Z,104172.84
2023-02-04T21:50:45.815Z,104173.38
2023-02-04T21:53:14.188Z,104181.63
2023-02-04T21:55:42.365Z,104182.41
2023-02-04T21:58:10.312Z,104187.75
2023-02-04T22:00:39.672Z,104209.81
2023-02-04T22:03:12.899Z,104216.88
2023-02-04T22:05:41.092Z,104193.28
2023-02-04T22:08:09.073Z,104185.22
2023-02-04T22:10:37.039Z,104192.09
2023-02-04T22:13:05.043Z,104192.28
2023-02-04T22:15:35.957Z,104193.44
2023-02-04T22:18:05.913Z,104193.56
2023-02-04T22:20:33.876Z,104189.53
2023-02-04T22:23:01.893Z,104195.31
2023-02-04T22:25:55.568Z,104164.72
2023-02-04T22:28:39.298Z,104142.09
2023-02-04T22:31:18.120Z,104188.25
2023-02-04T22:33:48.014Z,104201.63
2023-02-04T22:36:16.419Z,104208.97
2023-02-04T22:38:44.666Z,104217.88
2023-02-04T22:41:15.565Z,104218.75
2023-02-04T22:43:43.803Z,104215.16
2023-02-04T22:46:13.808Z,104220.34
2023-02-04T22:48:44.218Z,104217.75
2023-02-04T22:51:14.169Z,104195.56
2023-02-04T22:53:44.620Z,104221.56
2023-02-04T22:56:12.666Z,104226.38
2023-02-04T22:58:40.750Z,104243.91
2023-02-04T23:01:09.063Z,104242.06
2023-02-04T23:03:37.780Z,104228.34
2023-02-04T23:06:06.212Z,104244.53
2023-02-04T23:08:37.571Z,104234.88
2023-02-04T23:11:06.890Z,104230.47
2023-02-04T23:13:37.087Z,104235.16
2023-02-04T23:16:05.441Z,104242.22
2023-02-04T23:18:36.676Z,104250.06
2023-02-04T23:21:07.890Z,104266.75
2023-02-04T23:23:37.586Z,104233.28
2023-02-04T23:26:06.111Z,104269.56
2023-02-04T23:28:34.356Z,104249.53
2023-02-04T23:34:19.578Z,104259.97
2023-02-04T23:36:53.781Z,104259.03
2023-02-04T23:39:23.480Z,104248.31
2023-02-04T23:41:51.548Z,104271.97
2023-02-04T23:44:19.473Z,104280.34
2023-02-04T23:46:50.492Z,104257.06
2023-02-04T23:49:18.699Z,104280.09
2023-02-04T23:55:25.153Z,104263.31
2023-02-04T23:57:55.224Z,104271.78
